Time;durP1;ratioP1;P1;durP2;ratioP2;P2;SDS_P1;SDS_P2;PMS_P1;PMS_P2;Temp;Humidity;BMP_temperature;BMP_pressure;BME280_temperature;BME280_humidity;BME280_pressure;Samples;Min_cycle;Max_cycle;Signal;HPM_P1;HPM_P2
2024/01/16 00:00:55;;;;;;;3.17;2.27;;;0.90;99.90;0.60;98991.00;;;;4954958;28;118569;-74
2024/01/16 00:03:20;;;;;;;3.23;1.77;;;0.90;99.90;0.60;98994.00;;;;4938722;28;118930;-70
2024/01/16 00:05:46;;;;;;;2.90;2.10;;;0.90;99.90;0.60;98998.00;;;;4960031;28;109950;-72
2024/01/16 00:08:12;;;;;;;5.50;1.83;;;0.90;99.90;0.60;98997.00;;;;4952084;28;108737;-73
2024/01/16 00:10:37;;;;;;;3.20;2.00;;;0.90;99.90;0.60;99002.00;;;;4955376;28;116122;-74
2024/01/16 00:13:03;;;;;;;2.70;1.90;;;0.90;99.90;0.60;99006.00;;;;4955585;28;117768;-71
2024/01/16 00:15:29;;;;;;;1.90;1.70;;;1.00;99.90;0.60;98999.00;;;;4951190;28;94838;-72
2024/01/16 00:17:55;;;;;;;5.87;1.90;;;0.90;99.90;0.70;99007.00;;;;4952401;28;103223;-72
2024/01/16 00:20:23;;;;;;;3.40;1.57;;;2.30;99.90;0.70;99016.00;;;;4955507;28;88324;-71
2024/01/16 00:22:48;;;;;;;6.07;1.87;;;2.40;99.90;0.70;99014.00;;;;4955724;28;87729;-71
2024/01/16 00:25:14;;;;;;;1.67;1.50;;;0.90;99.90;0.70;99019.00;;;;4955689;28;89546;-72
2024/01/16 00:27:40;;;;;;;3.63;1.30;;;1.40;99.90;0.70;99020.00;;;;4954127;28;88286;-73
2024/01/16 00:30:06;;;;;;;2.60;1.67;;;1.00;99.90;0.70;99013.00;;;;4954787;28;118610;-71
2024/01/16 00:32:32;;;;;;;4.30;1.10;;;1.00;99.90;0.70;99012.00;;;;4957192;28;107073;-72
2024/01/16 00:34:58;;;;;;;1.73;1.17;;;1.00;99.90;0.70;99021.00;;;;4956895;28;110510;-71
2024/01/16 00:37:23;;;;;;;4.30;0.90;;;1.00;99.90;0.70;99036.00;;;;4949513;28;108002;-70
2024/01/16 00:39:52;;;;;;;1.90;1.40;;;1.10;99.90;0.70;99033.00;;;;4954059;28;117097;-75
2024/01/16 00:42:17;;;;;;;2.33;1.37;;;1.60;99.90;0.70;99038.00;;;;4955810;28;116483;-75
2024/01/16 00:44:43;;;;;;;3.87;1.30;;;1.00;99.90;0.70;99033.00;;;;4957870;28;110366;-76
2024/01/16 00:47:11;;;;;;;2.23;1.13;;;1.00;99.90;0.60;99028.00;;;;4953789;28;108228;-75
2024/01/16 00:49:39;;;;;;;4.10;1.40;;;1.00;99.90;0.60;99030.00;;;;4950131;28;90703;-75
2024/01/16 00:52:05;;;;;;;1.13;1.00;;;0.90;99.90;0.60;99031.00;;;;4949892;28;91384;-75
2024/01/16 00:54:31;;;;;;;1.60;1.23;;;0.80;99.90;0.50;99044.00;;;;4952934;28;87509;-73
2024/01/16 00:56:59;;;;;;;1.07;1.00;;;0.90;99.90;0.50;99038.00;;;;4954283;28;107598;-75
2024/01/16 00:59:25;;;;;;;2.67;0.87;;;0.80;99.90;0.50;99035.00;;;;4959414;28;87472;-73
2024/01/16 01:01:51;;;;;;;4.33;1.33;;;0.80;99.90;0.40;99038.00;;;;4969993;28;98118;-72
2024/01/16 01:04:17;;;;;;;3.73;1.20;;;0.80;99.90;0.50;99044.00;;;;4955618;28;88001;-72
2024/01/16 01:06:43;;;;;;;0.93;0.93;;;0.80;99.90;0.50;99041.00;;;;4938746;28;109278;-74
2024/01/16 01:09:11;;;;;;;3.90;1.47;;;1.00;99.90;0.50;99039.00;;;;4973351;28;88322;-74
2024/01/16 01:11:38;;;;;;;2.17;1.57;;;0.80;99.90;0.50;99051.00;;;;4957102;28;88194;-73
2024/01/16 01:14:04;;;;;;;7.40;1.33;;;0.70;99.90;0.50;99051.00;;;;4954105;28;88816;-75
2024/01/16 01:16:31;;;;;;;2.17;1.30;;;0.80;99.90;0.50;99061.00;;;;4955101;28;89537;-72
2024/01/16 01:18:56;;;;;;;1.03;0.93;;;0.90;99.90;0.50;99054.00;;;;4948200;28;87774;-73
2024/01/16 01:21:22;;;;;;;1.87;1.07;;;0.70;99.90;0.50;99059.00;;;;4956396;28;88154;-73
2024/01/16 01:23:50;;;;;;;1.33;1.20;;;1.00;99.90;0.50;99051.00;;;;4971197;28;88014;-73
2024/01/16 01:26:18;;;;;;;2.63;1.00;;;0.70;99.90;0.50;99060.00;;;;4960881;28;87699;-72
2024/01/16 01:28:44;;;;;;;6.10;1.20;;;1.20;99.90;0.50;99065.00;;;;4954209;28;87738;-73
2024/01/16 01:31:13;;;;;;;2.43;1.03;;;1.00;99.90;0.50;99067.00;;;;4958338;28;104408;-74
2024/01/16 01:33:39;;;;;;;1.70;1.60;;;0.80;99.90;0.50;99070.00;;;;4934838;28;87832;-73
2024/01/16 01:36:08;;;;;;;3.63;1.47;;;0.80;99.90;0.40;99070.00;;;;4950021;28;107993;-74
2024/01/16 01:38:33;;;;;;;2.73;1.40;;;0.70;99.90;0.50;99077.00;;;;4957335;28;88563;-74
2024/01/16 01:40:59;;;;;;;1.27;0.87;;;0.80;99.90;0.50;99072.00;;;;4948933;28;118274;-73
2024/01/16 01:43:28;;;;;;;1.73;1.30;;;0.80;99.90;0.50;99083.00;;;;4946551;28;87902;-75
2024/01/16 01:46:10;;;;;;;3.00;1.20;;;0.80;99.90;0.50;99078.00;;;;4953158;28;106149;-74
2024/01/16 01:48:41;;;;;;;2.10;0.90;;;0.90;99.90;0.50;99089.00;;;;4956126;28;87979;-74
2024/01/16 01:51:10;;;;;;;3.23;1.67;;;0.70;99.90;0.50;99096.00;;;;4955251;28;87688;-73
2024/01/16 01:53:38;;;;;;;1.10;1.00;;;1.90;99.90;0.50;99103.00;;;;4949554;28;87658;-72
2024/01/16 01:56:08;;;;;;;1.17;1.07;;;0.80;99.90;0.50;99107.00;;;;4938730;28;87238;-73
2024/01/16 01:58:35;;;;;;;2.70;1.50;;;0.80;99.90;0.50;99105.00;;;;4956184;28;88757;-74
2024/01/16 02:01:02;;;;;;;5.20;2.07;;;2.00;99.90;0.50;99103.00;;;;4952788;28;89097;-73
2024/01/16 02:03:32;;;;;;;1.53;1.13;;;1.00;99.90;0.60;99120.00;;;;4983835;28;101515;-72
2024/01/16 02:05:59;;;;;;;3.60;1.63;;;0.90;99.90;0.60;99117.00;;;;4947737;28;87992;-73
2024/01/16 02:08:25;;;;;;;2.73;1.27;;;0.90;99.90;0.60;99127.00;;;;4954761;28;87747;-76
2024/01/16 02:10:51;;;;;;;1.63;1.17;;;2.30;99.90;0.60;99128.00;;;;4957152;28;88999;-72
2024/01/16 02:13:20;;;;;;;1.80;1.27;;;1.30;99.90;0.60;99128.00;;;;4958882;28;88097;-73
2024/01/16 02:15:50;;;;;;;2.80;1.87;;;0.90;99.90;0.60;99140.00;;;;4958892;28;87530;-73
2024/01/16 02:18:16;;;;;;;1.57;1.27;;;1.10;99.90;0.60;99126.00;;;;4946797;28;90015;-73
2024/01/16 02:20:43;;;;;;;2.17;1.10;;;0.90;99.90;0.60;99133.00;;;;4960528;28;106531;-75
2024/01/16 02:23:12;;;;;;;2.73;1.77;;;0.90;99.90;0.60;99127.00;;;;4960456;28;95434;-74
2024/01/16 02:25:40;;;;;;;1.23;1.13;;;0.80;99.90;0.60;99135.00;;;;4950305;28;101317;-72
2024/01/16 02:28:05;;;;;;;2.30;1.43;;;0.90;99.90;0.60;99131.00;;;;4957854;28;89078;-71
2024/01/16 02:30:31;;;;;;;1.47;1.33;;;1.80;99.90;0.60;99151.00;;;;4959392;28;118424;-74
2024/01/16 02:32:57;;;;;;;3.77;1.30;;;0.70;99.90;0.60;99148.00;;;;4955554;28;110012;-72
2024/01/16 02:35:25;;;;;;;2.27;2.00;;;1.00;99.90;0.60;99144.00;;;;4957311;28;89113;-72
2024/01/16 02:37:50;;;;;;;3.83;1.50;;;0.90;99.90;0.60;99149.00;;;;4956120;28;118444;-72
2024/01/16 02:40:16;;;;;;;2.00;1.33;;;0.90;99.90;0.60;99149.00;;;;4950575;28;87842;-74
2024/01/16 02:42:45;;;;;;;2.50;1.87;;;0.80;99.90;0.60;99148.00;;;;4955779;28;87944;-74
2024/01/16 02:45:11;;;;;;;3.00;1.70;;;1.80;99.90;0.60;99145.00;;;;4973499;28;87161;-73
2024/01/16 02:47:36;;;;;;;1.93;1.73;;;0.80;99.90;0.60;99168.00;;;;4956941;28;118292;-73
2024/01/16 02:50:03;;;;;;;3.77;1.33;;;0.80;99.90;0.60;99153.00;;;;4970547;28;116816;-76
2024/01/16 02:52:29;;;;;;;2.33;1.77;;;1.00;99.90;0.60;99152.00;;;;4951622;28;89055;-73
2024/01/16 02:54:55;;;;;;;6.13;2.00;;;1.00;99.90;0.60;99162.00;;;;4956291;28;108366;-73
2024/01/16 02:57:20;;;;;;;7.43;2.40;;;2.50;99.90;0.60;99158.00;;;;4955003;28;88051;-72
2024/01/16 02:59:46;;;;;;;2.10;1.70;;;0.80;99.90;0.60;99162.00;;;;4957237;28;118521;-72
2024/01/16 03:02:13;;;;;;;2.67;1.87;;;0.90;99.90;0.50;99167.00;;;;4949406;28;87792;-74
2024/01/16 03:04:39;;;;;;;8.27;2.17;;;0.90;99.90;0.50;99168.00;;;;4940016;28;87709;-72
2024/01/16 03:07:07;;;;;;;3.70;1.83;;;0.80;99.90;0.50;99160.00;;;;4975204;28;116433;-73
2024/01/16 03:09:33;;;;;;;5.33;1.83;;;0.90;99.90;0.50;99164.00;;;;4940991;28;89930;-72
2024/01/16 03:12:04;;;;;;;6.37;1.57;;;0.80;99.90;0.60;99182.00;;;;4956787;28;108818;-73
2024/01/16 03:14:33;;;;;;;1.93;1.50;;;0.90;99.90;0.50;99163.00;;;;4958387;28;96696;-74
2024/01/16 03:17:03;;;;;;;5.43;1.87;;;0.90;99.90;0.50;99181.00;;;;4955309;28;89077;-73
2024/01/16 03:19:29;;;;;;;1.77;1.60;;;1.00;99.90;0.60;99182.00;;;;4957309;28;88191;-72
2024/01/16 03:21:55;;;;;;;1.60;1.47;;;1.40;99.90;0.50;99185.00;;;;4954092;28;87560;-72
2024/01/16 03:24:21;;;;;;;3.27;1.30;;;0.80;99.90;0.60;99188.00;;;;4952534;28;94599;-74
2024/01/16 03:26:47;;;;;;;7.83;1.93;;;1.50;99.90;0.50;99188.00;;;;4960461;28;87857;-74
2024/01/16 03:29:12;;;;;;;1.77;1.63;;;0.90;99.90;0.50;99194.00;;;;4954769;28;117413;-72
2024/01/16 03:31:38;;;;;;;1.53;1.43;;;0.30;99.90;0.50;99199.00;;;;4960945;28;109489;-71
2024/01/16 03:34:04;;;;;;;2.30;1.97;;;0.80;99.90;0.60;99194.00;;;;4958419;28;108034;-74
2024/01/16 03:36:29;;;;;;;2.83;1.97;;;1.90;99.90;0.60;99199.00;;;;4972035;28;118039;-73
2024/01/16 03:38:55;;;;;;;1.07;0.97;;;0.80;99.90;0.60;99206.00;;;;4972452;28;116565;-71
2024/01/16 03:41:21;;;;;;;3.37;1.03;;;0.90;99.90;0.60;99215.00;;;;4955622;28;109722;-74
2024/01/16 03:43:47;;;;;;;2.30;1.17;;;0.80;99.90;0.60;99204.00;;;;4951461;28;87612;-74
2024/01/16 03:46:12;;;;;;;1.07;1.03;;;0.90;99.90;0.70;99213.00;;;;4955429;28;113491;-75
2024/01/16 03:48:39;;;;;;;1.43;1.07;;;0.90;99.90;0.70;99202.00;;;;4952775;28;91196;-75
2024/01/16 03:51:06;;;;;;;0.97;0.80;;;1.10;99.90;0.70;99212.00;;;;4952584;28;87611;-76
2024/01/16 03:53:32;;;;;;;1.23;1.00;;;1.00;99.90;0.70;99212.00;;;;4974103;28;88128;-74
2024/01/16 03:55:58;;;;;;;2.93;1.20;;;1.00;99.90;0.70;99215.00;;;;4958309;28;88327;-73
2024/01/16 03:58:24;;;;;;;3.00;1.27;;;0.90;99.90;0.70;99210.00;;;;4958152;28;117390;-73
2024/01/16 04:00:50;;;;;;;4.30;1.53;;;0.40;99.90;0.70;99208.00;;;;4961116;28;87686;-74
2024/01/16 04:03:17;;;;;;;1.70;1.30;;;1.00;99.90;0.70;99218.00;;;;4955888;28;87868;-72
2024/01/16 04:05:42;;;;;;;3.03;1.23;;;0.90;99.90;0.70;99221.00;;;;4956310;28;99123;-74
2024/01/16 04:08:08;;;;;;;2.07;1.00;;;0.90;99.90;0.70;99230.00;;;;4954502;28;117967;-73
2024/01/16 04:10:34;;;;;;;1.23;1.00;;;1.00;99.90;0.70;99240.00;;;;4955489;28;95995;-73
2024/01/16 04:13:01;;;;;;;1.27;1.00;;;1.10;99.90;0.70;99234.00;;;;4956851;28;98110;-73
2024/01/16 04:15:27;;;;;;;3.30;0.97;;;1.10;99.90;0.70;99227.00;;;;4948762;28;87987;-73
2024/01/16 04:17:52;;;;;;;1.27;0.60;;;1.60;99.90;0.70;99234.00;;;;4958050;28;116570;-73
2024/01/16 04:20:18;;;;;;;1.73;0.67;;;1.10;99.90;0.70;99243.00;;;;4956512;28;102093;-74
2024/01/16 04:22:45;;;;;;;1.60;0.53;;;1.00;99.90;0.70;99248.00;;;;4956060;28;107962;-73
2024/01/16 04:25:11;;;;;;;0.83;0.60;;;1.10;99.90;0.70;99249.00;;;;4957589;28;101828;-74
2024/01/16 04:27:37;;;;;;;1.93;0.87;;;1.10;99.90;0.70;99245.00;;;;4954569;28;88075;-72
2024/01/16 04:30:04;;;;;;;0.50;0.50;;;1.10;99.90;0.70;99255.00;;;;4953872;28;109278;-73
2024/01/16 04:32:29;;;;;;;1.37;0.70;;;1.10;99.90;0.80;99243.00;;;;4957725;28;87769;-72
2024/01/16 04:34:55;;;;;;;1.13;0.93;;;1.20;99.90;0.80;99248.00;;;;4956360;28;117390;-76
2024/01/16 04:37:21;;;;;;;1.30;0.73;;;1.10;99.90;0.80;99259.00;;;;4948843;28;112575;-72
2024/01/16 04:39:46;;;;;;;3.37;0.60;;;1.20;99.90;0.80;99281.00;;;;4958829;28;87783;-75
2024/01/16 04:42:12;;;;;;;0.87;0.80;;;1.00;99.90;0.80;99289.00;;;;4953267;28;93785;-73
2024/01/16 04:44:37;;;;;;;1.47;1.00;;;1.00;99.90;0.80;99284.00;;;;4954492;28;117251;-73
2024/01/16 04:47:06;;;;;;;1.10;0.87;;;1.20;99.90;0.80;99286.00;;;;4955864;28;117780;-75
2024/01/16 04:49:31;;;;;;;0.93;0.70;;;1.20;99.90;0.80;99292.00;;;;4960024;28;87443;-72
2024/01/16 04:51:57;;;;;;;1.30;0.97;;;1.10;99.90;0.70;99297.00;;;;4967034;28;107971;-73
2024/01/16 04:54:23;;;;;;;0.70;0.60;;;1.10;99.90;0.70;99280.00;;;;4957300;28;118180;-72
2024/01/16 04:56:48;;;;;;;0.87;0.47;;;2.60;99.90;0.60;99289.00;;;;4956011;28;118935;-73
2024/01/16 04:59:14;;;;;;;1.20;0.70;;;1.00;99.90;0.50;99293.00;;;;4957860;28;89990;-73
2024/01/16 05:01:40;;;;;;;0.70;0.70;;;1.60;99.90;0.50;99296.00;;;;4970691;28;89252;-74
2024/01/16 05:04:07;;;;;;;0.60;0.60;;;0.80;99.90;0.40;99311.00;;;;4958966;28;95098;-74
2024/01/16 05:06:34;;;;;;;4.23;0.97;;;0.80;99.90;0.40;99312.00;;;;4955596;28;87769;-73
2024/01/16 05:09:00;;;;;;;2.07;0.80;;;0.80;99.90;0.40;99308.00;;;;4960638;28;87762;-71
2024/01/16 05:11:26;;;;;;;1.00;0.90;;;0.70;99.90;0.40;99311.00;;;;4971788;28;88280;-72
2024/01/16 05:13:57;;;;;;;0.73;0.40;;;0.70;99.90;0.30;99308.00;;;;4951580;28;116232;-73
2024/01/16 05:16:26;;;;;;;0.70;0.57;;;0.70;99.90;0.30;99307.00;;;;4953740;28;88236;-73
2024/01/16 05:18:53;;;;;;;0.97;0.73;;;0.60;99.90;0.30;99315.00;;;;4950677;28;88785;-72
2024/01/16 05:21:20;;;;;;;0.50;0.50;;;0.70;99.90;0.30;99315.00;;;;4957613;28;87789;-72
2024/01/16 05:23:46;;;;;;;1.10;0.73;;;0.60;99.90;0.30;99311.00;;;;4949403;28;88107;-74
2024/01/16 05:26:12;;;;;;;0.60;0.60;;;0.70;99.90;0.30;99311.00;;;;4941740;28;90120;-74
2024/01/16 05:28:39;;;;;;;0.90;0.90;;;0.60;99.90;0.30;99331.00;;;;4947344;28;87654;-73
2024/01/16 05:31:05;;;;;;;0.83;0.80;;;0.60;99.90;0.30;99335.00;;;;4959047;28;108685;-73
2024/01/16 05:33:32;;;;;;;2.70;0.90;;;-0.50;99.90;0.30;99341.00;;;;4953340;28;88035;-75
2024/01/16 05:35:57;;;;;;;0.47;0.47;;;0.60;99.90;0.30;99345.00;;;;4971234;28;90467;-73
2024/01/16 05:38:23;;;;;;;1.10;0.70;;;0.60;99.90;0.20;99344.00;;;;4957037;28;109789;-72
2024/01/16 05:40:49;;;;;;;1.23;0.80;;;0.60;99.90;0.20;99347.00;;;;4951182;28;87889;-73
2024/01/16 05:43:15;;;;;;;0.73;0.40;;;0.60;99.90;0.20;99356.00;;;;4951458;28;118453;-73
2024/01/16 05:45:40;;;;;;;1.27;0.70;;;1.60;99.90;0.10;99341.00;;;;4951345;28;88525;-73
2024/01/16 05:48:08;;;;;;;2.23;0.60;;;0.40;99.90;0.10;99357.00;;;;4950622;28;110884;-72
2024/01/16 05:50:35;;;;;;;0.83;0.70;;;0.40;99.90;0.00;99352.00;;;;4950360;28;87563;-73
2024/01/16 05:53:02;;;;;;;0.93;0.50;;;0.30;99.90;0.00;99364.00;;;;4947210;28;102191;-73
2024/01/16 05:55:28;;;;;;;3.13;0.60;;;0.80;99.90;0.00;99357.00;;;;4962777;28;89854;-74
2024/01/16 05:57:54;;;;;;;0.97;0.60;;;0.30;99.90;0.00;99356.00;;;;4943294;28;87542;-74
2024/01/16 06:00:22;;;;;;;0.40;0.30;;;0.30;99.90;-0.10;99353.00;;;;4949530;28;89161;-73
2024/01/16 06:02:48;;;;;;;3.20;0.80;;;0.30;99.90;-0.10;99359.00;;;;4947771;28;87437;-74
2024/01/16 06:05:14;;;;;;;0.73;0.50;;;0.30;99.90;-0.10;99361.00;;;;4962586;28;116746;-74
2024/01/16 06:07:39;;;;;;;0.60;0.60;;;0.30;99.90;-0.10;99363.00;;;;4949703;28;104534;-73
2024/01/16 06:10:06;;;;;;;0.60;0.60;;;0.30;99.90;0.00;99362.00;;;;4949338;28;87921;-74
2024/01/16 06:12:32;;;;;;;0.73;0.67;;;0.30;99.90;0.00;99365.00;;;;4951475;28;106037;-73
2024/01/16 06:14:58;;;;;;;0.50;0.50;;;0.40;99.90;0.00;99375.00;;;;4952962;28;89334;-73
2024/01/16 06:17:23;;;;;;;0.40;0.40;;;0.30;99.90;0.00;99362.00;;;;4941967;28;110232;-73
2024/01/16 06:19:49;;;;;;;0.50;0.50;;;0.40;99.90;0.00;99368.00;;;;4943221;28;107419;-74
2024/01/16 06:22:15;;;;;;;1.37;1.20;;;0.30;99.90;0.00;99374.00;;;;4942958;28;87870;-72
2024/01/16 06:24:41;;;;;;;1.30;0.87;;;0.30;99.90;0.10;99372.00;;;;4954965;28;116491;-72
2024/01/16 06:27:07;;;;;;;1.03;0.70;;;0.40;99.90;0.10;99387.00;;;;4946080;28;103011;-73
2024/01/16 06:29:32;;;;;;;4.10;2.20;;;0.40;99.90;0.10;99387.00;;;;4966507;28;87218;-72
2024/01/16 06:31:59;;;;;;;1.83;1.03;;;0.50;99.90;0.10;99390.00;;;;4962925;28;88689;-72
2024/01/16 06:34:24;;;;;;;0.80;0.80;;;0.70;99.90;0.10;99393.00;;;;4966212;28;87990;-72
2024/01/16 06:36:50;;;;;;;0.77;0.77;;;0.50;99.90;0.10;99392.00;;;;4968290;28;88780;-73
2024/01/16 06:39:15;;;;;;;1.43;1.20;;;0.50;99.90;0.10;99402.00;;;;4969338;28;109299;-72
2024/01/16 06:41:41;;;;;;;2.50;1.37;;;0.60;99.90;0.10;99408.00;;;;4952272;28;115523;-72
2024/01/16 06:44:07;;;;;;;0.70;0.70;;;0.40;99.90;0.10;99410.00;;;;4933010;28;117277;-72
2024/01/16 06:46:34;;;;;;;2.23;1.53;;;0.50;99.90;0.10;99403.00;;;;4940426;28;88262;-72
2024/01/16 06:49:00;;;;;;;1.03;0.93;;;0.40;99.90;0.10;99408.00;;;;4955388;28;87254;-73
2024/01/16 06:51:27;;;;;;;2.10;1.23;;;0.40;99.90;0.10;99402.00;;;;4959720;28;107756;-72
2024/01/16 06:53:52;;;;;;;1.33;0.80;;;0.50;99.90;0.10;99407.00;;;;4953826;28;105112;-73
2024/01/16 06:56:18;;;;;;;2.83;1.37;;;0.50;99.90;0.10;99403.00;;;;4953439;28;110185;-73
2024/01/16 06:58:44;;;;;;;1.70;0.97;;;0.40;99.90;0.10;99414.00;;;;4951688;28;87957;-73
2024/01/16 07:01:10;;;;;;;2.17;1.17;;;0.50;99.90;0.10;99419.00;;;;4956487;28;117356;-74
2024/01/16 07:03:36;;;;;;;1.80;0.93;;;1.10;99.90;0.10;99427.00;;;;4954417;28;90461;-73
2024/01/16 07:06:02;;;;;;;1.33;0.97;;;1.20;99.90;0.20;99439.00;;;;4958336;28;87758;-72
2024/01/16 07:08:28;;;;;;;3.47;1.00;;;0.50;99.90;0.20;99446.00;;;;4939161;28;87803;-74
2024/01/16 07:10:54;;;;;;;1.80;1.00;;;1.40;99.90;0.20;99443.00;;;;4951838;28;117096;-72
2024/01/16 07:13:19;;;;;;;0.97;0.60;;;0.40;99.90;0.20;99444.00;;;;4961683;28;88647;-72
2024/01/16 07:15:45;;;;;;;1.83;1.10;;;0.60;99.90;0.30;99445.00;;;;4962306;28;88209;-72
2024/01/16 07:18:11;;;;;;;0.77;0.73;;;0.60;99.90;0.30;99464.00;;;;4956465;28;107929;-72
2024/01/16 07:20:37;;;;;;;0.20;0.20;;;0.50;99.90;0.30;99489.00;;;;4956192;28;118775;-72
2024/01/16 07:23:04;;;;;;;0.53;0.40;;;0.50;99.90;0.20;99457.00;;;;4954414;28;119565;-72
2024/01/16 07:25:29;;;;;;;0.20;0.20;;;0.60;99.90;0.20;99477.00;;;;4958998;28;87583;-72
2024/01/16 07:27:55;;;;;;;1.07;0.37;;;0.50;99.90;0.20;99475.00;;;;4953699;28;87608;-72
2024/01/16 07:30:21;;;;;;;0.50;0.50;;;0.50;99.90;0.10;99480.00;;;;4938561;28;87858;-73
2024/01/16 07:32:46;;;;;;;0.40;0.40;;;0.50;99.90;0.10;99487.00;;;;4959327;28;98310;-71
2024/01/16 07:35:13;;;;;;;0.27;0.27;;;0.50;99.90;0.10;99494.00;;;;4961229;28;108442;-71
2024/01/16 07:37:39;;;;;;;0.50;0.50;;;0.40;99.90;0.00;99493.00;;;;4960579;28;87211;-70
2024/01/16 07:40:09;;;;;;;0.63;0.60;;;0.80;99.90;0.00;99494.00;;;;4955417;28;90383;-70
2024/01/16 07:42:35;;;;;;;0.60;0.53;;;0.30;99.90;0.00;99504.00;;;;4957685;28;88804;-71
2024/01/16 07:45:04;;;;;;;0.40;0.40;;;0.30;99.90;0.00;99499.00;;;;4950922;28;89050;-71
2024/01/16 07:47:31;;;;;;;0.50;0.40;;;0.40;99.90;0.00;99521.00;;;;4959408;28;87720;-71
2024/01/16 07:49:57;;;;;;;1.60;0.60;;;0.40;99.90;0.10;99520.00;;;;4957989;28;88940;-71
2024/01/16 07:52:23;;;;;;;2.33;0.60;;;0.30;99.90;0.10;99520.00;;;;4950449;28;87799;-72
2024/01/16 07:54:49;;;;;;;0.93;0.70;;;0.40;99.90;0.20;99540.00;;;;4952265;28;103210;-72
2024/01/16 07:57:14;;;;;;;0.70;0.50;;;0.50;99.90;0.20;99530.00;;;;4956360;28;94358;-74
2024/01/16 07:59:43;;;;;;;1.60;0.60;;;0.50;99.90;0.20;99531.00;;;;4960340;28;115212;-72
2024/01/16 08:02:09;;;;;;;0.40;0.40;;;0.50;99.90;0.20;99535.00;;;;4938237;28;89610;-71
2024/01/16 08:04:35;;;;;;;1.47;0.53;;;1.50;99.90;0.20;99533.00;;;;4955599;28;91318;-71
2024/01/16 08:07:01;;;;;;;0.73;0.73;;;0.50;99.90;0.20;99538.00;;;;4954367;28;108307;-72
2024/01/16 08:09:26;;;;;;;0.77;0.60;;;0.50;99.90;0.20;99537.00;;;;4956604;28;105916;-71
2024/01/16 08:11:52;;;;;;;0.67;0.67;;;-0.40;99.90;0.30;99542.00;;;;4976146;28;91713;-71
2024/01/16 08:14:18;;;;;;;0.63;0.63;;;0.60;99.90;0.40;99542.00;;;;4959507;28;92440;-73
2024/01/16 08:16:43;;;;;;;2.23;0.97;;;0.70;99.90;0.50;99543.00;;;;4958517;28;107691;-71
2024/01/16 08:19:09;;;;;;;0.60;0.60;;;0.60;99.90;0.50;99553.00;;;;4955734;28;117516;-72
2024/01/16 08:21:36;;;;;;;0.90;0.63;;;0.90;99.90;0.50;99562.00;;;;4956354;28;116617;-73
2024/01/16 08:24:02;;;;;;;0.50;0.50;;;0.80;99.90;0.50;99555.00;;;;4955659;28;87867;-73
2024/01/16 08:26:28;;;;;;;2.17;0.80;;;0.80;99.90;0.50;99553.00;;;;4971218;28;87083;-73
2024/01/16 08:28:54;;;;;;;1.07;0.97;;;2.20;99.90;0.50;99551.00;;;;4961391;28;88989;-72
2024/01/16 08:31:20;;;;;;;0.97;0.80;;;0.90;99.90;0.50;99571.00;;;;4952363;28;106496;-72
2024/01/16 08:33:45;;;;;;;3.33;1.53;;;0.80;99.90;0.50;99567.00;;;;4948844;28;88682;-74
2024/01/16 08:36:11;;;;;;;1.47;1.37;;;0.80;99.90;0.60;99560.00;;;;4956421;28;87760;-73
2024/01/16 08:38:37;;;;;;;1.07;0.87;;;1.00;99.90;0.60;99565.00;;;;4951236;28;87617;-74
2024/01/16 08:41:06;;;;;;;1.33;1.13;;;1.10;99.90;0.50;99553.00;;;;4952621;28;89291;-74
2024/01/16 08:43:34;;;;;;;4.77;1.40;;;0.90;99.90;0.60;99579.00;;;;4959541;28;87841;-75
2024/01/16 08:46:00;;;;;;;0.60;0.60;;;0.90;99.90;0.60;99575.00;;;;4954874;28;109011;-72
2024/01/16 08:48:26;;;;;;;1.97;1.73;;;0.90;99.90;0.70;99573.00;;;;4954567;28;87715;-72
2024/01/16 08:50:54;;;;;;;6.43;2.83;;;0.90;99.90;0.70;99573.00;;;;4956508;28;118682;-72
2024/01/16 08:53:22;;;;;;;6.60;3.00;;;0.90;99.90;0.80;99578.00;;;;4949265;28;87942;-74
2024/01/16 08:55:48;;;;;;;2.30;1.63;;;1.20;99.90;1.00;99577.00;;;;4952697;28;88031;-70
2024/01/16 08:58:14;;;;;;;2.00;1.30;;;1.20;99.90;1.00;99570.00;;;;4953550;28;89456;-72
2024/01/16 09:00:40;;;;;;;2.50;1.27;;;1.30;99.90;1.10;99581.00;;;;4958432;28;91177;-72
2024/01/16 09:03:07;;;;;;;7.80;3.27;;;1.30;99.90;1.10;99584.00;;;;4957453;28;110855;-71
2024/01/16 09:05:36;;;;;;;2.43;1.40;;;1.40;99.90;1.10;99577.00;;;;4956542;28;87842;-72
2024/01/16 09:08:02;;;;;;;1.50;1.10;;;1.40;99.90;1.10;99589.00;;;;4948715;28;88430;-73
2024/01/16 09:10:29;;;;;;;1.90;1.63;;;1.40;99.90;1.10;99586.00;;;;4938724;28;90056;-73
2024/01/16 09:12:55;;;;;;;2.93;1.67;;;3.10;99.90;1.20;99593.00;;;;4950113;28;87797;-73
2024/01/16 09:15:20;;;;;;;4.10;1.67;;;1.40;99.90;1.20;99585.00;;;;4960967;28;108825;-72
2024/01/16 09:17:46;;;;;;;2.93;1.57;;;1.50;99.90;1.20;99591.00;;;;4949639;28;117493;-72
2024/01/16 09:20:12;;;;;;;4.33;1.67;;;1.50;99.90;1.20;99593.00;;;;4955568;28;88790;-71
2024/01/16 09:22:38;;;;;;;2.17;0.93;;;1.60;99.90;1.20;99603.00;;;;4963316;28;108265;-69
2024/01/16 09:25:05;;;;;;;0.90;0.70;;;1.40;99.90;1.30;99601.00;;;;4961576;28;108425;-71
2024/01/16 09:27:30;;;;;;;1.27;1.00;;;2.40;99.90;1.30;99589.00;;;;4964906;28;88990;-74
2024/01/16 09:29:56;;;;;;;0.47;0.30;;;1.60;99.90;1.40;99597.00;;;;4962631;28;117223;-70
2024/01/16 09:32:22;;;;;;;7.80;1.33;;;1.60;99.90;1.40;99594.00;;;;4955469;28;108912;-71
2024/01/16 09:34:47;;;;;;;2.40;0.80;;;1.70;99.90;1.50;99603.00;;;;4959332;28;102363;-72
2024/01/16 09:37:14;;;;;;;4.20;0.93;;;1.60;99.90;1.50;99598.00;;;;4958837;28;88288;-71
2024/01/16 09:39:41;;;;;;;2.90;1.17;;;1.80;99.90;1.60;99591.00;;;;4958615;28;88349;-72
2024/01/16 09:42:06;;;;;;;1.20;1.10;;;1.80;99.90;1.70;99593.00;;;;4956526;28;87729;-72
2024/01/16 09:44:34;;;;;;;1.97;1.77;;;1.90;99.90;1.90;99593.00;;;;4948773;28;108433;-73
2024/01/16 09:47:03;;;;;;;2.53;1.53;;;2.10;99.90;2.00;99604.00;;;;4956185;28;89930;-73
2024/01/16 09:49:29;;;;;;;2.07;1.50;;;2.10;99.90;2.00;99603.00;;;;4959025;28;87997;-72
2024/01/16 09:51:55;;;;;;;2.47;1.07;;;2.30;99.90;2.00;99608.00;;;;4954415;28;87810;-72
2024/01/16 09:54:21;;;;;;;5.37;2.03;;;2.30;99.90;1.90;99610.00;;;;4958732;28;87795;-75
2024/01/16 09:56:51;;;;;;;2.43;1.07;;;2.80;99.90;1.80;99608.00;;;;4949155;28;119873;-73
2024/01/16 09:59:18;;;;;;;1.57;1.37;;;2.10;99.90;1.70;99590.00;;;;4954028;28;93014;-73
2024/01/16 10:01:45;;;;;;;1.77;1.27;;;2.00;99.90;1.60;99609.00;;;;4952962;28;87883;-71
2024/01/16 10:04:11;;;;;;;4.20;1.43;;;2.00;99.90;1.60;99611.00;;;;4955924;28;109939;-72
2024/01/16 10:06:39;;;;;;;4.87;1.97;;;1.90;99.90;1.50;99625.00;;;;4953550;28;114850;-72
2024/01/16 10:09:06;;;;;;;1.87;1.40;;;1.60;99.90;1.50;99617.00;;;;4956879;28;87945;-72
2024/01/16 10:11:34;;;;;;;2.10;1.40;;;1.70;99.90;1.70;99615.00;;;;4957969;28;88561;-74
2024/01/16 10:13:59;;;;;;;1.63;1.43;;;1.90;99.90;1.80;99623.00;;;;4949186;28;87906;-71
2024/01/16 10:17:09;;;;;;;5.27;1.77;;;2.10;99.90;1.80;99615.00;;;;4955402;28;92254;-73
2024/01/16 10:19:47;;;;;;;1.43;1.07;;;2.10;99.90;1.70;99623.00;;;;4953393;28;88138;-72
2024/01/16 10:22:13;;;;;;;2.97;2.00;;;2.00;99.90;1.60;99621.00;;;;4955982;28;101295;-71
2024/01/16 10:24:40;;;;;;;1.60;1.23;;;2.00;99.90;1.50;99633.00;;;;4957873;28;99431;-72
2024/01/16 10:27:06;;;;;;;2.37;1.27;;;1.80;99.90;1.40;99635.00;;;;4947207;28;89963;-72
2024/01/16 10:29:32;;;;;;;7.00;2.13;;;2.50;99.90;1.40;99635.00;;;;4947501;28;116789;-74
2024/01/16 10:31:59;;;;;;;12.63;2.33;;;1.80;99.90;1.40;99644.00;;;;4956689;28;87777;-73
2024/01/16 10:34:24;;;;;;;5.73;1.67;;;2.30;99.90;1.40;99640.00;;;;4958895;28;87869;-72
2024/01/16 10:36:59;;;;;;;2.83;1.63;;;1.60;99.90;1.30;99629.00;;;;4960071;28;89690;-70
2024/01/16 10:39:25;;;;;;;3.57;2.17;;;1.60;99.90;1.40;99639.00;;;;4958706;28;89268;-71
2024/01/16 10:41:56;;;;;;;4.37;2.10;;;1.60;99.90;1.40;99642.00;;;;4959141;28;111323;-70
2024/01/16 10:44:21;;;;;;;3.03;1.90;;;1.70;99.90;1.40;99635.00;;;;4953505;28;87657;-70
2024/01/16 10:46:47;;;;;;;4.63;1.43;;;1.70;99.90;1.50;99643.00;;;;4957615;28;104516;-69
2024/01/16 10:49:13;;;;;;;4.00;1.20;;;1.80;99.90;1.60;99633.00;;;;4974782;28;89089;-69
2024/01/16 10:51:43;;;;;;;2.03;1.63;;;3.30;99.90;1.70;99642.00;;;;4958540;28;109409;-67
2024/01/16 10:54:13;;;;;;;6.27;2.33;;;2.70;99.90;1.70;99627.00;;;;4961840;28;87268;-68
2024/01/16 10:56:45;;;;;;;6.43;2.30;;;2.00;99.90;1.80;99639.00;;;;4954111;28;89697;-68
2024/01/16 10:59:34;;;;;;;2.07;1.40;;;2.00;99.90;1.70;99647.00;;;;4955569;28;88873;-68
2024/01/16 11:02:04;;;;;;;3.47;1.50;;;2.10;99.90;1.70;99630.00;;;;4953181;28;88687;-69
2024/01/16 11:04:30;;;;;;;3.63;1.83;;;2.00;99.90;1.70;99631.00;;;;4953236;28;87757;-70